sensor_id;sensor_type;location;lat;lon;timestamp;P1;durP1;ratioP1;P2;durP2;ratioP2
58966;SDS011;44744;51.894;5.080;2022-07-21T00:01:04;6.30;;;4.60;;
58966;SDS011;44744;51.894;5.080;2022-07-21T00:02:05;6.20;;;4.40;;
58966;SDS011;44744;51.894;5.080;2022-07-21T00:03:05;5.30;;;4.30;;
58966;SDS011;44744;51.894;5.080;2022-07-21T00:04:05;6.00;;;4.70;;
58966;SDS011;44744;51.894;5.080;2022-07-21T00:05:06;5.80;;;4.20;;
58966;SDS011;44744;51.894;5.080;2022-07-21T00:06:07;4.80;;;4.30;;
58966;SDS011;44744;51.894;5.080;2022-07-21T00:07:07;6.60;;;4.90;;
58966;SDS011;44744;51.894;5.080;2022-07-21T00:08:10;5.60;;;4.80;;
58966;SDS011;44744;51.894;5.080;2022-07-21T00:09:16;5.70;;;4.70;;
58966;SDS011;44744;51.894;5.080;2022-07-21T00:10:17;5.50;;;4.40;;
58966;SDS011;44744;51.894;5.080;2022-07-21T00:11:18;5.50;;;4.50;;
58966;SDS011;44744;51.894;5.080;2022-07-21T00:12:18;7.20;;;4.50;;
58966;SDS011;44744;51.894;5.080;2022-07-21T00:13:19;5.60;;;4.40;;
58966;SDS011;44744;51.894;5.080;2022-07-21T00:14:22;6.30;;;4.60;;
58966;SDS011;44744;51.894;5.080;2022-07-21T00:15:26;6.30;;;4.40;;
58966;SDS011;44744;51.894;5.080;2022-07-21T00:16:27;6.60;;;4.90;;
58966;SDS011;44744;51.894;5.080;2022-07-21T00:17:28;6.20;;;4.70;;
58966;SDS011;44744;51.894;5.080;2022-07-21T00:18:28;6.00;;;4.50;;
58966;SDS011;44744;51.894;5.080;2022-07-21T00:19:31;5.30;;;4.40;;
58966;SDS011;44744;51.894;5.080;2022-07-21T00:20:37;5.20;;;4.30;;
58966;SDS011;44744;51.894;5.080;2022-07-21T00:21:38;6.60;;;4.90;;
58966;SDS011;44744;51.894;5.080;2022-07-21T00:22:39;7.30;;;5.20;;
58966;SDS011;44744;51.894;5.080;2022-07-21T00:23:39;5.20;;;4.70;;
58966;SDS011;44744;51.894;5.080;2022-07-21T00:24:39;6.20;;;4.90;;
58966;SDS011;44744;51.894;5.080;2022-07-21T00:25:40;7.30;;;4.70;;
58966;SDS011;44744;51.894;5.080;2022-07-21T00:26:40;6.00;;;4.80;;
58966;SDS011;44744;51.894;5.080;2022-07-21T00:27:41;4.80;;;4.30;;
58966;SDS011;44744;51.894;5.080;2022-07-21T00:28:42;5.30;;;4.70;;
58966;SDS011;44744;51.894;5.080;2022-07-21T00:29:42;5.30;;;4.70;;
58966;SDS011;44744;51.894;5.080;2022-07-21T00:30:43;5.90;;;4.60;;
58966;SDS011;44744;51.894;5.080;2022-07-21T00:31:44;6.50;;;4.70;;
58966;SDS011;44744;51.894;5.080;2022-07-21T00:32:44;8.50;;;4.90;;
58966;SDS011;44744;51.894;5.080;2022-07-21T00:33:45;8.80;;;5.40;;
58966;SDS011;44744;51.894;5.080;2022-07-21T00:34:45;6.40;;;5.40;;
58966;SDS011;44744;51.894;5.080;2022-07-21T00:35:45;6.50;;;5.10;;
58966;SDS011;44744;51.894;5.080;2022-07-21T00:36:53;7.10;;;5.20;;
58966;SDS011;44744;51.894;5.080;2022-07-21T00:37:54;7.50;;;5.20;;
58966;SDS011;44744;51.894;5.080;2022-07-21T00:38:54;5.50;;;4.80;;
58966;SDS011;44744;51.894;5.080;2022-07-21T00:39:55;7.20;;;5.50;;
58966;SDS011;44744;51.894;5.080;2022-07-21T00:40:55;6.40;;;4.80;;
58966;SDS011;44744;51.894;5.080;2022-07-21T00:41:55;6.20;;;4.50;;
58966;SDS011;44744;51.894;5.080;2022-07-21T00:42:56;7.20;;;5.20;;
58966;SDS011;44744;51.894;5.080;2022-07-21T00:43:56;6.10;;;5.40;;
58966;SDS011;44744;51.894;5.080;2022-07-21T00:44:57;7.70;;;5.70;;
58966;SDS011;44744;51.894;5.080;2022-07-21T00:45:58;6.70;;;5.40;;
58966;SDS011;44744;51.894;5.080;2022-07-21T00:46:59;6.20;;;5.50;;
58966;SDS011;44744;51.894;5.080;2022-07-21T00:47:59;6.70;;;5.30;;
58966;SDS011;44744;51.894;5.080;2022-07-21T00:49:00;8.40;;;5.90;;
58966;SDS011;44744;51.894;5.080;2022-07-21T00:50:02;6.40;;;5.50;;
58966;SDS011;44744;51.894;5.080;2022-07-21T00:51:08;6.00;;;5.40;;
58966;SDS011;44744;51.894;5.080;2022-07-21T00:52:08;7.00;;;5.40;;
58966;SDS011;44744;51.894;5.080;2022-07-21T00:53:08;5.90;;;5.00;;
58966;SDS011;44744;51.894;5.080;2022-07-21T00:54:09;6.00;;;5.40;;
58966;SDS011;44744;51.894;5.080;2022-07-21T00:55:14;8.00;;;5.30;;
58966;SDS011;44744;51.894;5.080;2022-07-21T00:56:18;7.20;;;5.40;;
58966;SDS011;44744;51.894;5.080;2022-07-21T00:57:21;7.00;;;5.70;;
58966;SDS011;44744;51.894;5.080;2022-07-21T00:58:22;6.40;;;5.60;;
58966;SDS011;44744;51.894;5.080;2022-07-21T00:59:23;7.40;;;5.90;;
58966;SDS011;44744;51.894;5.080;2022-07-21T01:00:28;7.30;;;5.90;;
58966;SDS011;44744;51.894;5.080;2022-07-21T01:01:30;6.90;;;6.00;;
58966;SDS011;44744;51.894;5.080;2022-07-21T01:02:30;6.30;;;5.60;;
58966;SDS011;44744;51.894;5.080;2022-07-21T01:03:30;7.50;;;5.80;;
58966;SDS011;44744;51.894;5.080;2022-07-21T01:04:31;10.60;;;6.10;;
58966;SDS011;44744;51.894;5.080;2022-07-21T01:05:31;6.40;;;5.70;;
58966;SDS011;44744;51.894;5.080;2022-07-21T01:06:32;6.80;;;6.10;;
58966;SDS011;44744;51.894;5.080;2022-07-21T01:07:32;7.90;;;6.40;;
58966;SDS011;44744;51.894;5.080;2022-07-21T01:08:33;6.80;;;6.00;;
58966;SDS011;44744;51.894;5.080;2022-07-21T01:09:39;7.50;;;5.70;;
58966;SDS011;44744;51.894;5.080;2022-07-21T01:10:39;12.30;;;6.80;;
58966;SDS011;44744;51.894;5.080;2022-07-21T01:11:39;7.20;;;6.00;;
58966;SDS011;44744;51.894;5.080;2022-07-21T01:12:43;7.60;;;6.40;;
58966;SDS011;44744;51.894;5.080;2022-07-21T01:13:44;9.80;;;6.70;;
58966;SDS011;44744;51.894;5.080;2022-07-21T01:14:45;7.40;;;6.20;;
58966;SDS011;44744;51.894;5.080;2022-07-21T01:15:45;9.90;;;6.60;;
58966;SDS011;44744;51.894;5.080;2022-07-21T01:16:46;7.70;;;6.20;;
58966;SDS011;44744;51.894;5.080;2022-07-21T01:17:46;9.20;;;6.80;;
58966;SDS011;44744;51.894;5.080;2022-07-21T01:18:48;7.50;;;6.70;;
58966;SDS011;44744;51.894;5.080;2022-07-21T01:19:48;7.90;;;7.10;;
58966;SDS011;44744;51.894;5.080;2022-07-21T01:20:53;11.20;;;7.20;;
58966;SDS011;44744;51.894;5.080;2022-07-21T01:21:54;8.40;;;6.90;;
58966;SDS011;44744;51.894;5.080;2022-07-21T01:22:55;9.40;;;7.00;;
58966;SDS011;44744;51.894;5.080;2022-07-21T01:24:05;8.60;;;7.30;;
58966;SDS011;44744;51.894;5.080;2022-07-21T01:25:09;7.80;;;6.90;;
58966;SDS011;44744;51.894;5.080;2022-07-21T01:26:11;9.20;;;8.00;;
58966;SDS011;44744;51.894;5.080;2022-07-21T01:27:11;9.60;;;7.50;;
58966;SDS011;44744;51.894;5.080;2022-07-21T01:28:12;8.80;;;7.20;;
58966;SDS011;44744;51.894;5.080;2022-07-21T01:29:12;8.50;;;7.20;;
58966;SDS011;44744;51.894;5.080;2022-07-21T01:30:22;8.20;;;7.30;;
58966;SDS011;44744;51.894;5.080;2022-07-21T01:31:23;8.90;;;7.70;;
58966;SDS011;44744;51.894;5.080;2022-07-21T01:32:23;10.50;;;7.70;;
58966;SDS011;44744;51.894;5.080;2022-07-21T01:33:24;8.00;;;7.20;;
58966;SDS011;44744;51.894;5.080;2022-07-21T01:34:27;10.30;;;7.30;;
58966;SDS011;44744;51.894;5.080;2022-07-21T01:35:27;9.90;;;8.40;;
58966;SDS011;44744;51.894;5.080;2022-07-21T01:36:28;9.00;;;7.90;;
58966;SDS011;44744;51.894;5.080;2022-07-21T01:37:28;11.10;;;8.20;;
58966;SDS011;44744;51.894;5.080;2022-07-21T01:38:30;10.60;;;8.40;;
58966;SDS011;44744;51.894;5.080;2022-07-21T01:39:31;10.10;;;8.10;;
58966;SDS011;44744;51.894;5.080;2022-07-21T01:40:31;10.70;;;8.80;;
58966;SDS011;44744;51.894;5.080;2022-07-21T01:41:31;9.10;;;7.40;;
58966;SDS011;44744;51.894;5.080;2022-07-21T01:42:32;9.90;;;8.60;;
58966;SDS011;44744;51.894;5.080;2022-07-21T01:43:32;9.80;;;7.90;;
58966;SDS011;44744;51.894;5.080;2022-07-21T01:44:35;11.80;;;8.20;;
58966;SDS011;44744;51.894;5.080;2022-07-21T01:45:36;11.20;;;9.70;;
58966;SDS011;44744;51.894;5.080;2022-07-21T01:46:37;9.30;;;8.30;;
58966;SDS011;44744;51.894;5.080;2022-07-21T01:47:43;10.80;;;8.80;;
58966;SDS011;44744;51.894;5.080;2022-07-21T01:48:43;11.00;;;9.60;;
58966;SDS011;44744;51.894;5.080;2022-07-21T01:49:45;11.00;;;9.40;;
58966;SDS011;44744;51.894;5.080;2022-07-21T01:50:48;11.70;;;9.60;;
58966;SDS011;44744;51.894;5.080;2022-07-21T01:51:48;11.60;;;9.50;;
58966;SDS011;44744;51.894;5.080;2022-07-21T01:52:49;9.60;;;8.60;;
58966;SDS011;44744;51.894;5.080;2022-07-21T01:53:50;9.50;;;8.50;;
58966;SDS011;44744;51.894;5.080;2022-07-21T01:54:51;9.70;;;8.70;;
58966;SDS011;44744;51.894;5.080;2022-07-21T01:55:51;10.20;;;8.80;;
58966;SDS011;44744;51.894;5.080;2022-07-21T01:56:52;9.70;;;8.70;;
58966;SDS011;44744;51.894;5.080;2022-07-21T01:57:52;11.20;;;9.40;;
58966;SDS011;44744;51.894;5.080;2022-07-21T01:58:53;10.70;;;9.50;;
58966;SDS011;44744;51.894;5.080;2022-07-21T01:59:55;11.60;;;8.70;;
58966;SDS011;44744;51.894;5.080;2022-07-21T02:00:55;12.50;;;9.50;;
58966;SDS011;44744;51.894;5.080;2022-07-21T02:01:56;9.30;;;8.40;;
58966;SDS011;44744;51.894;5.080;2022-07-21T02:02:56;10.90;;;8.60;;
58966;SDS011;44744;51.894;5.080;2022-07-21T02:03:58;11.60;;;9.70;;
58966;SDS011;44744;51.894;5.080;2022-07-21T02:05:00;10.60;;;8.80;;
58966;SDS011;44744;51.894;5.080;2022-07-21T02:06:04;9.50;;;8.50;;
58966;SDS011;44744;51.894;5.080;2022-07-21T02:07:05;10.20;;;9.00;;
58966;SDS011;44744;51.894;5.080;2022-07-21T02:08:05;11.90;;;9.40;;
58966;SDS011;44744;51.894;5.080;2022-07-21T02:09:06;8.70;;;7.80;;
58966;SDS011;44744;51.894;5.080;2022-07-21T02:10:06;10.20;;;9.20;;
58966;SDS011;44744;51.894;5.080;2022-07-21T02:11:07;10.70;;;9.10;;
58966;SDS011;44744;51.894;5.080;2022-07-21T02:12:08;11.40;;;9.70;;
58966;SDS011;44744;51.894;5.080;2022-07-21T02:13:08;10.00;;;8.80;;
58966;SDS011;44744;51.894;5.080;2022-07-21T02:14:09;10.70;;;8.90;;
58966;SDS011;44744;51.894;5.080;2022-07-21T02:15:09;11.30;;;9.50;;
58966;SDS011;44744;51.894;5.080;2022-07-21T02:16:10;10.70;;;9.60;;
58966;SDS011;44744;51.894;5.080;2022-07-21T02:17:10;9.90;;;8.90;;
58966;SDS011;44744;51.894;5.080;2022-07-21T02:18:11;9.00;;;8.10;;
58966;SDS011;44744;51.894;5.080;2022-07-21T02:19:11;10.50;;;9.00;;
58966;SDS011;44744;51.894;5.080;2022-07-21T02:20:12;10.60;;;9.30;;
58966;SDS011;44744;51.894;5.080;2022-07-21T02:21:13;10.20;;;9.20;;
58966;SDS011;44744;51.894;5.080;2022-07-21T02:22:13;11.40;;;9.40;;
58966;SDS011;44744;51.894;5.080;2022-07-21T02:23:14;11.00;;;9.00;;
58966;SDS011;44744;51.894;5.080;2022-07-21T02:24:15;10.40;;;9.30;;
58966;SDS011;44744;51.894;5.080;2022-07-21T02:25:15;11.20;;;8.80;;
58966;SDS011;44744;51.894;5.080;2022-07-21T02:26:16;12.30;;;9.40;;
58966;SDS011;44744;51.894;5.080;2022-07-21T02:27:17;10.90;;;9.80;;
58966;SDS011;44744;51.894;5.080;2022-07-21T02:28:17;10.50;;;9.40;;
58966;SDS011;44744;51.894;5.080;2022-07-21T02:29:27;12.70;;;9.90;;
58966;SDS011;44744;51.894;5.080;2022-07-21T02:30:27;12.60;;;9.70;;
58966;SDS011;44744;51.894;5.080;2022-07-21T02:31:27;10.50;;;9.20;;
58966;SDS011;44744;51.894;5.080;2022-07-21T02:32:28;11.60;;;9.00;;
58966;SDS011;44744;51.894;5.080;2022-07-21T02:33:28;10.30;;;9.30;;
58966;SDS011;44744;51.894;5.080;2022-07-21T02:34:28;13.20;;;10.00;;
58966;SDS011;44744;51.894;5.080;2022-07-21T02:35:34;11.50;;;9.80;;
58966;SDS011;44744;51.894;5.080;2022-07-21T02:36:40;10.80;;;9.70;;
58966;SDS011;44744;51.894;5.080;2022-07-21T02:37:41;11.20;;;10.00;;
58966;SDS011;44744;51.894;5.080;2022-07-21T02:38:52;12.10;;;10.00;;
58966;SDS011;44744;51.894;5.080;2022-07-21T02:39:53;12.20;;;9.40;;
58966;SDS011;44744;51.894;5.080;2022-07-21T02:40:53;11.50;;;10.10;;
58966;SDS011;44744;51.894;5.080;2022-07-21T02:41:54;15.90;;;10.90;;
58966;SDS011;44744;51.894;5.080;2022-07-21T02:42:55;12.50;;;10.30;;
58966;SDS011;44744;51.894;5.080;2022-07-21T02:43:55;13.10;;;11.00;;
58966;SDS011;44744;51.894;5.080;2022-07-21T02:45:03;12.90;;;10.10;;
58966;SDS011;44744;51.894;5.080;2022-07-21T02:46:04;10.60;;;9.50;;
58966;SDS011;44744;51.894;5.080;2022-07-21T02:47:05;12.60;;;9.90;;
58966;SDS011;44744;51.894;5.080;2022-07-21T02:48:07;11.60;;;10.40;;
58966;SDS011;44744;51.894;5.080;2022-07-21T02:49:09;12.80;;;10.60;;
58966;SDS011;44744;51.894;5.080;2022-07-21T02:50:10;13.10;;;10.90;;
58966;SDS011;44744;51.894;5.080;2022-07-21T02:51:10;12.80;;;11.50;;
58966;SDS011;44744;51.894;5.080;2022-07-21T02:52:11;13.10;;;11.70;;
58966;SDS011;44744;51.894;5.080;2022-07-21T02:53:13;13.90;;;11.70;;
58966;SDS011;44744;51.894;5.080;2022-07-21T02:54:15;13.20;;;11.80;;
58966;SDS011;44744;51.894;5.080;2022-07-21T02:55:18;13.60;;;11.30;;
58966;SDS011;44744;51.894;5.080;2022-07-21T02:56:18;19.30;;;11.20;;
58966;SDS011;44744;51.894;5.080;2022-07-21T02:57:19;12.40;;;11.10;;
58966;SDS011;44744;51.894;5.080;2022-07-21T02:58:22;12.30;;;10.90;;
58966;SDS011;44744;51.894;5.080;2022-07-21T02:59:23;12.60;;;10.90;;
58966;SDS011;44744;51.894;5.080;2022-07-21T03:00:24;13.10;;;11.40;;
58966;SDS011;44744;51.894;5.080;2022-07-21T03:01:24;13.70;;;11.10;;
58966;SDS011;44744;51.894;5.080;2022-07-21T03:02:24;13.30;;;11.20;;
58966;SDS011;44744;51.894;5.080;2022-07-21T03:03:26;13.90;;;12.40;;
58966;SDS011;44744;51.894;5.080;2022-07-21T03:04:38;13.90;;;11.20;;
58966;SDS011;44744;51.894;5.080;2022-07-21T03:05:38;12.90;;;11.50;;
58966;SDS011;44744;51.894;5.080;2022-07-21T03:06:39;14.20;;;12.70;;
58966;SDS011;44744;51.894;5.080;2022-07-21T03:07:39;15.00;;;12.00;;
58966;SDS011;44744;51.894;5.080;2022-07-21T03:08:39;12.30;;;11.10;;
58966;SDS011;44744;51.894;5.080;2022-07-21T03:09:40;15.00;;;11.50;;
58966;SDS011;44744;51.894;5.080;2022-07-21T03:10:40;16.10;;;12.20;;
58966;SDS011;44744;51.894;5.080;2022-07-21T03:11:41;13.80;;;12.10;;
58966;SDS011;44744;51.894;5.080;2022-07-21T03:12:41;14.10;;;12.10;;
58966;SDS011;44744;51.894;5.080;2022-07-21T03:13:41;13.80;;;12.40;;
58966;SDS011;44744;51.894;5.080;2022-07-21T03:14:45;12.90;;;11.60;;
58966;SDS011;44744;51.894;5.080;2022-07-21T03:15:45;14.30;;;12.60;;
58966;SDS011;44744;51.894;5.080;2022-07-21T03:16:45;14.60;;;12.60;;
58966;SDS011;44744;51.894;5.080;2022-07-21T03:17:46;14.60;;;13.10;;
58966;SDS011;44744;51.894;5.080;2022-07-21T03:18:46;14.80;;;12.40;;
58966;SDS011;44744;51.894;5.080;2022-07-21T03:19:46;14.20;;;12.70;;
58966;SDS011;44744;51.894;5.080;2022-07-21T03:20:47;13.70;;;12.10;;
58966;SDS011;44744;51.894;5.080;2022-07-21T03:21:47;14.80;;;12.80;;
58966;SDS011;44744;51.894;5.080;2022-07-21T03:22:48;14.10;;;12.40;;
58966;SDS011;44744;51.894;5.080;2022-07-21T03:23:51;15.70;;;12.80;;
58966;SDS011;44744;51.894;5.080;2022-07-21T03:24:51;14.10;;;12.70;;
58966;SDS011;44744;51.894;5.080;2022-07-21T03:25:51;16.30;;;13.10;;
58966;SDS011;44744;51.894;5.080;2022-07-21T03:26:52;13.90;;;12.50;;
58966;SDS011;44744;51.894;5.080;2022-07-21T03:27:53;14.00;;;12.60;;
58966;SDS011;44744;51.894;5.080;2022-07-21T03:28:54;14.10;;;12.70;;
58966;SDS011;44744;51.894;5.080;2022-07-21T03:29:54;15.10;;;13.10;;
58966;SDS011;44744;51.894;5.080;2022-07-21T03:30:54;14.20;;;12.80;;
58966;SDS011;44744;51.894;5.080;2022-07-21T03:31:54;13.80;;;12.40;;
58966;SDS011;44744;51.894;5.080;2022-07-21T03:32:55;15.30;;;13.40;;
58966;SDS011;44744;51.894;5.080;2022-07-21T03:33:55;18.00;;;14.30;;
58966;SDS011;44744;51.894;5.080;2022-07-21T03:34:56;15.20;;;13.00;;
58966;SDS011;44744;51.894;5.080;2022-07-21T03:35:56;16.00;;;14.10;;
58966;SDS011;44744;51.894;5.080;2022-07-21T03:36:57;15.00;;;13.40;;
58966;SDS011;44744;51.894;5.080;2022-07-21T03:37:59;15.00;;;13.40;;
58966;SDS011;44744;51.894;5.080;2022-07-21T03:40:03;15.60;;;12.10;;
58966;SDS011;44744;51.894;5.080;2022-07-21T03:41:06;15.60;;;13.80;;
58966;SDS011;44744;51.894;5.080;2022-07-21T03:42:07;15.70;;;13.40;;
58966;SDS011;44744;51.894;5.080;2022-07-21T03:43:07;19.30;;;14.70;;
58966;SDS011;44744;51.894;5.080;2022-07-21T03:44:08;16.20;;;13.90;;
58966;SDS011;44744;51.894;5.080;2022-07-21T03:45:11;15.80;;;14.20;;
58966;SDS011;44744;51.894;5.080;2022-07-21T03:46:11;15.30;;;13.70;;
58966;SDS011;44744;51.894;5.080;2022-07-21T03:47:12;16.30;;;14.50;;
58966;SDS011;44744;51.894;5.080;2022-07-21T03:48:12;16.00;;;13.50;;
58966;SDS011;44744;51.894;5.080;2022-07-21T03:49:13;15.70;;;14.10;;
58966;SDS011;44744;51.894;5.080;2022-07-21T03:50:13;14.90;;;13.30;;
58966;SDS011;44744;51.894;5.080;2022-07-21T03:51:14;16.10;;;14.40;;
58966;SDS011;44744;51.894;5.080;2022-07-21T03:52:14;17.00;;;14.20;;
58966;SDS011;44744;51.894;5.080;2022-07-21T03:53:14;15.20;;;13.70;;
58966;SDS011;44744;51.894;5.080;2022-07-21T03:54:15;16.40;;;14.00;;
58966;SDS011;44744;51.894;5.080;2022-07-21T03:55:15;15.70;;;14.10;;
58966;SDS011;44744;51.894;5.080;2022-07-21T03:56:16;14.20;;;12.70;;
58966;SDS011;44744;51.894;5.080;2022-07-21T03:57:16;20.50;;;14.40;;
58966;SDS011;44744;51.894;5.080;2022-07-21T03:58:16;17.50;;;14.60;;
58966;SDS011;44744;51.894;5.080;2022-07-21T03:59:17;15.80;;;14.10;;
58966;SDS011;44744;51.894;5.080;2022-07-21T04:00:18;15.40;;;13.80;;
58966;SDS011;44744;51.894;5.080;2022-07-21T04:01:21;16.90;;;15.20;;
58966;SDS011;44744;51.894;5.080;2022-07-21T04:02:22;16.00;;;14.30;;
58966;SDS011;44744;51.894;5.080;2022-07-21T04:03:22;17.00;;;14.20;;
58966;SDS011;44744;51.894;5.080;2022-07-21T04:04:22;16.80;;;14.70;;
58966;SDS011;44744;51.894;5.080;2022-07-21T04:05:23;16.60;;;14.90;;
58966;SDS011;44744;51.894;5.080;2022-07-21T04:06:24;16.80;;;14.80;;
58966;SDS011;44744;51.894;5.080;2022-07-21T04:07:24;17.30;;;14.80;;
58966;SDS011;44744;51.894;5.080;2022-07-21T04:08:24;19.80;;;14.50;;
58966;SDS011;44744;51.894;5.080;2022-07-21T04:09:25;17.50;;;15.10;;
58966;SDS011;44744;51.894;5.080;2022-07-21T04:10:26;16.60;;;14.90;;
58966;SDS011;44744;51.894;5.080;2022-07-21T04:11:28;16.90;;;15.10;;
58966;SDS011;44744;51.894;5.080;2022-07-21T04:12:28;19.60;;;14.80;;
58966;SDS011;44744;51.894;5.080;2022-07-21T04:13:29;16.90;;;14.50;;
58966;SDS011;44744;51.894;5.080;2022-07-21T04:14:29;15.90;;;14.20;;
58966;SDS011;44744;51.894;5.080;2022-07-21T04:15:30;17.90;;;14.10;;
58966;SDS011;44744;51.894;5.080;2022-07-21T04:16:30;17.30;;;14.70;;
58966;SDS011;44744;51.894;5.080;2022-07-21T04:17:31;15.60;;;14.00;;
58966;SDS011;44744;51.894;5.080;2022-07-21T04:18:31;15.00;;;13.50;;
58966;SDS011;44744;51.894;5.080;2022-07-21T04:19:31;15.20;;;13.60;;
58966;SDS011;44744;51.894;5.080;2022-07-21T04:20:32;17.60;;;14.40;;
58966;SDS011;44744;51.894;5.080;2022-07-21T04:21:33;17.40;;;15.30;;
58966;SDS011;44744;51.894;5.080;2022-07-21T04:22:34;19.90;;;14.10;;
58966;SDS011;44744;51.894;5.080;2022-07-21T04:23:34;16.80;;;14.30;;
58966;SDS011;44744;51.894;5.080;2022-07-21T04:24:35;14.60;;;13.00;;
58966;SDS011;44744;51.894;5.080;2022-07-21T04:25:35;16.70;;;14.50;;
58966;SDS011;44744;51.894;5.080;2022-07-21T04:26:35;20.20;;;15.30;;
58966;SDS011;44744;51.894;5.080;2022-07-21T04:27:39;17.50;;;14.10;;
58966;SDS011;44744;51.894;5.080;2022-07-21T04:28:40;20.40;;;14.70;;
58966;SDS011;44744;51.894;5.080;2022-07-21T04:29:41;16.00;;;13.50;;
58966;SDS011;44744;51.894;5.080;2022-07-21T04:30:41;16.80;;;14.00;;
58966;SDS011;44744;51.894;5.080;2022-07-21T04:31:41;17.20;;;13.70;;
58966;SDS011;44744;51.894;5.080;2022-07-21T04:32:47;16.00;;;14.10;;
58966;SDS011;44744;51.894;5.080;2022-07-21T04:33:50;20.30;;;13.10;;
58966;SDS011;44744;51.894;5.080;2022-07-21T04:34:51;15.40;;;13.70;;
58966;SDS011;44744;51.894;5.080;2022-07-21T04:35:51;18.50;;;13.90;;
58966;SDS011;44744;51.894;5.080;2022-07-21T04:36:51;15.70;;;13.20;;
58966;SDS011;44744;51.894;5.080;2022-07-21T04:37:52;15.00;;;13.40;;
58966;SDS011;44744;51.894;5.080;2022-07-21T04:38:52;16.10;;;13.90;;
58966;SDS011;44744;51.894;5.080;2022-07-21T04:39:52;14.60;;;12.90;;
58966;SDS011;44744;51.894;5.080;2022-07-21T04:40:53;15.20;;;13.10;;
58966;SDS011;44744;51.894;5.080;2022-07-21T04:41:53;17.30;;;13.10;;
58966;SDS011;44744;51.894;5.080;2022-07-21T04:42:53;18.10;;;13.20;;
58966;SDS011;44744;51.894;5.080;2022-07-21T04:43:54;17.30;;;12.40;;
58966;SDS011;44744;51.894;5.080;2022-07-21T04:44:54;18.10;;;12.80;;
58966;SDS011;44744;51.894;5.080;2022-07-21T04:45:55;15.60;;;12.60;;
58966;SDS011;44744;51.894;5.080;2022-07-21T04:48:17;15.90;;;12.30;;
58966;SDS011;44744;51.894;5.080;2022-07-21T04:49:26;16.60;;;13.50;;
58966;SDS011;44744;51.894;5.080;2022-07-21T04:50:27;17.20;;;12.80;;
58966;SDS011;44744;51.894;5.080;2022-07-21T04:51:28;16.10;;;12.30;;
58966;SDS011;44744;51.894;5.080;2022-07-21T04:52:28;15.70;;;12.10;;
58966;SDS011;44744;51.894;5.080;2022-07-21T04:53:28;15.60;;;11.70;;
58966;SDS011;44744;51.894;5.080;2022-07-21T04:54:32;19.90;;;13.30;;
58966;SDS011;44744;51.894;5.080;2022-07-21T04:55:32;13.20;;;11.80;;
58966;SDS011;44744;51.894;5.080;2022-07-21T04:56:33;17.10;;;12.10;;
58966;SDS011;44744;51.894;5.080;2022-07-21T04:57:37;17.00;;;12.30;;
58966;SDS011;44744;51.894;5.080;2022-07-21T04:58:41;15.10;;;12.30;;
58966;SDS011;44744;51.894;5.080;2022-07-21T04:59:41;16.20;;;12.40;;
58966;SDS011;44744;51.894;5.080;2022-07-21T05:00:41;17.40;;;11.40;;
58966;SDS011;44744;51.894;5.080;2022-07-21T05:01:42;15.10;;;11.90;;
58966;SDS011;44744;51.894;5.080;2022-07-21T05:02:42;17.30;;;12.70;;
58966;SDS011;44744;51.894;5.080;2022-07-21T05:03:44;19.50;;;11.60;;
58966;SDS011;44744;51.894;5.080;2022-07-21T05:04:45;16.10;;;12.40;;
58966;SDS011;44744;51.894;5.080;2022-07-21T05:05:46;14.60;;;13.00;;
58966;SDS011;44744;51.894;5.080;2022-07-21T05:06:46;20.60;;;12.90;;
58966;SDS011;44744;51.894;5.080;2022-07-21T05:07:47;16.00;;;12.30;;
58966;SDS011;44744;51.894;5.080;2022-07-21T05:08:47;14.90;;;12.40;;
58966;SDS011;44744;51.894;5.080;2022-07-21T05:10:58;16.60;;;11.90;;
58966;SDS011;44744;51.894;5.080;2022-07-21T05:11:58;19.00;;;12.90;;
58966;SDS011;44744;51.894;5.080;2022-07-21T05:12:59;16.80;;;12.40;;
58966;SDS011;44744;51.894;5.080;2022-07-21T05:13:59;15.50;;;13.10;;
58966;SDS011;44744;51.894;5.080;2022-07-21T05:14:59;15.40;;;13.00;;
58966;SDS011;44744;51.894;5.080;2022-07-21T05:16:00;19.20;;;12.80;;
58966;SDS011;44744;51.894;5.080;2022-07-21T05:17:00;17.70;;;12.60;;
58966;SDS011;44744;51.894;5.080;2022-07-21T05:18:01;18.70;;;13.00;;
58966;SDS011;44744;51.894;5.080;2022-07-21T05:19:01;16.60;;;12.60;;
58966;SDS011;44744;51.894;5.080;2022-07-21T05:20:02;16.50;;;12.80;;
58966;SDS011;44744;51.894;5.080;2022-07-21T05:21:03;16.50;;;13.20;;
58966;SDS011;44744;51.894;5.080;2022-07-21T05:22:04;16.00;;;12.70;;
58966;SDS011;44744;51.894;5.080;2022-07-21T05:23:04;16.80;;;13.30;;
58966;SDS011;44744;51.894;5.080;2022-07-21T05:24:04;20.70;;;13.30;;
58966;SDS011;44744;51.894;5.080;2022-07-21T05:25:05;18.60;;;14.20;;
58966;SDS011;44744;51.894;5.080;2022-07-21T05:26:07;25.40;;;15.00;;
58966;SDS011;44744;51.894;5.080;2022-07-21T05:27:07;16.00;;;13.30;;
58966;SDS011;44744;51.894;5.080;2022-07-21T05:28:07;18.80;;;14.00;;
58966;SDS011;44744;51.894;5.080;2022-07-21T05:29:08;16.70;;;12.70;;
58966;SDS011;44744;51.894;5.080;2022-07-21T05:30:09;18.50;;;13.70;;
58966;SDS011;44744;51.894;5.080;2022-07-21T05:31:12;14.50;;;12.40;;
58966;SDS011;44744;51.894;5.080;2022-07-21T05:32:15;20.30;;;14.60;;
58966;SDS011;44744;51.894;5.080;2022-07-21T05:33:16;18.90;;;13.90;;
58966;SDS011;44744;51.894;5.080;2022-07-21T05:34:16;23.90;;;15.50;;
58966;SDS011;44744;51.894;5.080;2022-07-21T05:35:16;23.60;;;15.20;;
58966;SDS011;44744;51.894;5.080;2022-07-21T05:36:17;18.50;;;14.90;;
58966;SDS011;44744;51.894;5.080;2022-07-21T05:37:17;19.70;;;14.90;;
58966;SDS011;44744;51.894;5.080;2022-07-21T05:38:18;22.90;;;14.70;;
58966;SDS011;44744;51.894;5.080;2022-07-21T05:39:18;20.60;;;15.20;;
58966;SDS011;44744;51.894;5.080;2022-07-21T05:40:19;21.60;;;15.50;;
58966;SDS011;44744;51.894;5.080;2022-07-21T05:41:19;21.40;;;15.10;;
58966;SDS011;44744;51.894;5.080;2022-07-21T05:42:23;27.00;;;15.70;;
58966;SDS011;44744;51.894;5.080;2022-07-21T05:43:23;23.10;;;15.30;;
58966;SDS011;44744;51.894;5.080;2022-07-21T05:44:23;21.00;;;16.60;;
58966;SDS011;44744;51.894;5.080;2022-07-21T05:45:24;22.40;;;16.60;;
58966;SDS011;44744;51.894;5.080;2022-07-21T05:46:27;26.10;;;16.80;;
58966;SDS011;44744;51.894;5.080;2022-07-21T05:47:28;20.00;;;15.70;;
58966;SDS011;44744;51.894;5.080;2022-07-21T05:48:29;26.80;;;17.20;;
58966;SDS011;44744;51.894;5.080;2022-07-21T05:49:29;24.00;;;17.40;;
58966;SDS011;44744;51.894;5.080;2022-07-21T05:50:29;23.10;;;17.50;;
58966;SDS011;44744;51.894;5.080;2022-07-21T05:51:30;28.10;;;18.40;;
58966;SDS011;44744;51.894;5.080;2022-07-21T05:52:30;26.30;;;19.50;;
58966;SDS011;44744;51.894;5.080;2022-07-21T05:53:33;27.90;;;19.30;;
58966;SDS011;44744;51.894;5.080;2022-07-21T05:54:40;29.60;;;20.60;;
58966;SDS011;44744;51.894;5.080;2022-07-21T05:55:41;27.80;;;19.90;;
58966;SDS011;44744;51.894;5.080;2022-07-21T05:56:42;27.80;;;19.30;;
58966;SDS011;44744;51.894;5.080;2022-07-21T05:57:42;31.20;;;19.60;;
58966;SDS011;44744;51.894;5.080;2022-07-21T05:58:42;28.40;;;20.20;;
58966;SDS011;44744;51.894;5.080;2022-07-21T05:59:43;30.00;;;19.50;;
58966;SDS011;44744;51.894;5.080;2022-07-21T06:00:44;36.60;;;20.00;;
58966;SDS011;44744;51.894;5.080;2022-07-21T06:01:45;31.70;;;20.20;;
58966;SDS011;44744;51.894;5.080;2022-07-21T06:02:45;31.20;;;21.00;;
58966;SDS011;44744;51.894;5.080;2022-07-21T06:03:47;29.50;;;19.90;;
58966;SDS011;44744;51.894;5.080;2022-07-21T06:04:50;33.40;;;19.90;;
58966;SDS011;44744;51.894;5.080;2022-07-21T06:05:51;32.10;;;21.40;;